Time;durP1;ratioP1;P1;durP2;ratioP2;P2;SDS_P1;SDS_P2;PMS_P1;PMS_P2;Temp;Humidity;BMP_temperature;BMP_pressure;BME280_temperature;BME280_humidity;BME280_pressure;Samples;Min_cycle;Max_cycle;Signal;HPM_P1;HPM_P2
2023/06/12 00:02:13;;;;;;;6.82;4.93;;;;;;;;;;5010524;28;20030;-61
2023/06/12 00:04:59;;;;;;;6.65;4.32;;;;;;;;;;5005647;28;20113;-63
2023/06/12 00:07:47;;;;;;;5.15;3.75;;;;;;;;;;5004204;28;20041;-61
2023/06/12 00:10:32;;;;;;;6.35;4.35;;;;;;;;;;5007198;28;20033;-67
2023/06/12 00:13:17;;;;;;;6.05;4.00;;;;;;;;;;5005731;28;20076;-64
2023/06/12 00:16:03;;;;;;;7.03;3.85;;;;;;;;;;5007748;28;20124;-65
2023/06/12 00:18:49;;;;;;;5.95;3.83;;;;;;;;;;5004052;28;20172;-64
2023/06/12 00:21:35;;;;;;;6.32;4.50;;;;;;;;;;5006813;28;20030;-66
2023/06/12 00:24:20;;;;;;;7.88;4.45;;;;;;;;;;5005985;28;20033;-64
2023/06/12 00:27:05;;;;;;;7.00;4.75;;;;;;;;;;5009952;28;20476;-65
2023/06/12 00:29:51;;;;;;;6.45;4.55;;;;;;;;;;5008473;28;20087;-67
2023/06/12 00:32:36;;;;;;;6.88;4.35;;;;;;;;;;5004062;28;20064;-68
2023/06/12 00:35:21;;;;;;;6.95;3.97;;;;;;;;;;5018512;28;20072;-66
2023/06/12 00:38:06;;;;;;;6.07;4.18;;;;;;;;;;4982050;28;20042;-67
2023/06/12 00:40:52;;;;;;;7.18;4.20;;;;;;;;;;5007416;28;20029;-67
2023/06/12 00:43:37;;;;;;;5.60;4.13;;;;;;;;;;5012280;28;20033;-68
2023/06/12 00:46:22;;;;;;;5.70;4.40;;;;;;;;;;5016807;28;20044;-60
2023/06/12 00:49:08;;;;;;;6.82;4.30;;;;;;;;;;5000246;28;20148;-72
2023/06/12 00:51:55;;;;;;;6.72;4.05;;;;;;;;;;5004025;28;20381;-62
2023/06/12 00:54:40;;;;;;;6.05;4.10;;;;;;;;;;5005283;28;20041;-63
2023/06/12 00:57:25;;;;;;;7.55;4.97;;;;;;;;;;4990922;28;20499;-59
2023/06/12 01:00:12;;;;;;;5.88;4.15;;;;;;;;;;5012910;28;20061;-60
2023/06/12 01:03:04;;;;;;;8.63;4.47;;;;;;;;;;5001571;28;20034;-61
2023/06/12 01:05:49;;;;;;;6.05;4.30;;;;;;;;;;4996433;28;20372;-63
2023/06/12 01:08:42;;;;;;;5.95;4.38;;;;;;;;;;5011659;28;20428;-59
2023/06/12 01:11:27;;;;;;;5.60;3.83;;;;;;;;;;5005700;28;20049;-59
2023/06/12 01:14:17;;;;;;;5.53;3.90;;;;;;;;;;5007875;28;20029;-61
2023/06/12 01:17:03;;;;;;;4.88;3.83;;;;;;;;;;5007526;28;20049;-59
2023/06/12 01:19:48;;;;;;;5.97;4.32;;;;;;;;;;5008542;28;20026;-52
2023/06/12 01:22:36;;;;;;;5.55;3.95;;;;;;;;;;5009280;28;20029;-59
2023/06/12 01:25:22;;;;;;;7.28;4.55;;;;;;;;;;5009309;28;20032;-63
2023/06/12 01:28:13;;;;;;;6.25;4.15;;;;;;;;;;5005956;28;20046;-60
2023/06/12 01:31:18;;;;;;;7.18;4.53;;;;;;;;;;5016281;28;20058;-57
2023/06/12 01:34:09;;;;;;;8.23;4.70;;;;;;;;;;4996697;28;20045;-58
2023/06/12 01:37:06;;;;;;;7.38;4.20;;;;;;;;;;5007838;28;20033;-56
2023/06/12 01:39:56;;;;;;;7.55;4.50;;;;;;;;;;5011276;28;20108;-54
2023/06/12 01:42:41;;;;;;;8.10;4.60;;;;;;;;;;5009730;28;20084;-66
2023/06/12 01:45:27;;;;;;;5.13;3.75;;;;;;;;;;5002629;28;20120;-74
2023/06/12 01:48:14;;;;;;;6.40;4.38;;;;;;;;;;5007466;28;20030;-76
2023/06/12 01:50:59;;;;;;;6.80;4.40;;;;;;;;;;5001146;28;20029;-76
2023/06/12 01:53:44;;;;;;;7.20;4.28;;;;;;;;;;5005794;28;20033;-75
2023/06/12 01:56:30;;;;;;;4.70;3.78;;;;;;;;;;5008576;28;20412;-74
2023/06/12 01:59:15;;;;;;;5.75;4.45;;;;;;;;;;4989419;28;20121;-74
2023/06/12 02:02:01;;;;;;;6.97;4.30;;;;;;;;;;5012469;28;20104;-57
2023/06/12 02:04:47;;;;;;;5.78;4.07;;;;;;;;;;5006982;28;20099;-72
2023/06/12 02:07:32;;;;;;;5.30;3.53;;;;;;;;;;5008889;28;20477;-71
2023/06/12 02:10:17;;;;;;;7.97;4.30;;;;;;;;;;5013438;28;20025;-73
2023/06/12 02:13:02;;;;;;;6.20;3.92;;;;;;;;;;5006529;28;20385;-74
2023/06/12 02:15:47;;;;;;;7.80;4.10;;;;;;;;;;5007026;28;20080;-73
2023/06/12 02:18:33;;;;;;;6.03;3.92;;;;;;;;;;5006443;28;20026;-60
2023/06/12 02:21:18;;;;;;;5.32;3.80;;;;;;;;;;5007456;28;20033;-66
2023/06/12 02:24:04;;;;;;;7.78;4.93;;;;;;;;;;5004541;28;20080;-67
2023/06/12 02:26:49;;;;;;;5.80;4.55;;;;;;;;;;5004183;28;20370;-65
2023/06/12 02:29:34;;;;;;;5.45;4.00;;;;;;;;;;5005206;28;20033;-67
2023/06/12 02:32:20;;;;;;;5.03;3.42;;;;;;;;;;5007336;28;20048;-65
2023/06/12 02:35:08;;;;;;;5.65;4.03;;;;;;;;;;5008395;28;20076;-65
2023/06/12 02:37:54;;;;;;;7.00;4.45;;;;;;;;;;5006075;28;20080;-66
2023/06/12 02:40:39;;;;;;;9.23;4.30;;;;;;;;;;5003087;28;20022;-54
2023/06/12 02:43:24;;;;;;;5.43;3.85;;;;;;;;;;5025913;28;20129;-55
2023/06/12 02:46:10;;;;;;;8.13;4.40;;;;;;;;;;5006984;28;20101;-56
2023/06/12 02:48:55;;;;;;;6.35;4.00;;;;;;;;;;5006037;28;20108;-53
2023/06/12 02:51:40;;;;;;;5.35;4.00;;;;;;;;;;5002354;28;20026;-52
2023/06/12 02:54:26;;;;;;;6.45;4.38;;;;;;;;;;4991875;28;20033;-53
2023/06/12 02:57:11;;;;;;;7.18;4.13;;;;;;;;;;5006849;28;20057;-64
2023/06/12 02:59:57;;;;;;;6.40;4.22;;;;;;;;;;4999901;28;20068;-74
2023/06/12 03:02:44;;;;;;;8.15;4.43;;;;;;;;;;5011592;28;20124;-72
2023/06/12 03:05:29;;;;;;;7.75;5.10;;;;;;;;;;5007553;28;20045;-73
2023/06/12 03:08:16;;;;;;;8.32;4.55;;;;;;;;;;5007308;28;20037;-74
2023/06/12 03:11:01;;;;;;;7.05;4.28;;;;;;;;;;5002880;28;20025;-75
2023/06/12 03:13:46;;;;;;;6.32;4.32;;;;;;;;;;4998150;28;20033;-64
2023/06/12 03:16:32;;;;;;;5.97;3.78;;;;;;;;;;5015870;28;20038;-66
2023/06/12 03:19:29;;;;;;;6.25;4.10;;;;;;;;;;5006843;28;20030;-65
2023/06/12 03:22:14;;;;;;;5.75;4.15;;;;;;;;;;5008139;28;20037;-66
2023/06/12 03:25:01;;;;;;;7.35;4.40;;;;;;;;;;5007238;28;20120;-65
2023/06/12 03:27:47;;;;;;;5.45;4.18;;;;;;;;;;4997205;28;20050;-64
2023/06/12 03:30:32;;;;;;;7.93;4.68;;;;;;;;;;5001818;28;20038;-63
2023/06/12 03:33:17;;;;;;;5.93;4.43;;;;;;;;;;5007375;28;20025;-64
2023/06/12 03:36:03;;;;;;;5.45;4.05;;;;;;;;;;5000422;28;20108;-66
2023/06/12 03:38:48;;;;;;;6.68;4.25;;;;;;;;;;5006133;28;20113;-67
2023/06/12 03:41:33;;;;;;;7.65;4.68;;;;;;;;;;4998777;28;20462;-63
2023/06/12 03:44:18;;;;;;;6.25;4.68;;;;;;;;;;5006765;28;20033;-64
2023/06/12 03:47:04;;;;;;;7.72;4.68;;;;;;;;;;5015062;28;20312;-65
2023/06/12 03:49:49;;;;;;;6.43;4.07;;;;;;;;;;5008699;28;20367;-65
2023/06/12 03:52:34;;;;;;;6.15;4.45;;;;;;;;;;5007815;28;20477;-64
2023/06/12 03:55:20;;;;;;;7.70;4.78;;;;;;;;;;5008505;28;20038;-59
2023/06/12 03:58:06;;;;;;;8.23;4.72;;;;;;;;;;5012239;28;20501;-57
2023/06/12 04:00:51;;;;;;;7.90;5.03;;;;;;;;;;5009866;28;20037;-55
2023/06/12 04:03:38;;;;;;;7.28;4.70;;;;;;;;;;5012299;28;20088;-57
2023/06/12 04:06:24;;;;;;;5.65;3.95;;;;;;;;;;5012603;28;20042;-57
2023/06/12 04:09:12;;;;;;;8.25;4.25;;;;;;;;;;4997402;28;20024;-62
2023/06/12 04:11:57;;;;;;;8.93;4.80;;;;;;;;;;5010777;28;20506;-64
2023/06/12 04:14:43;;;;;;;6.95;4.45;;;;;;;;;;4999946;28;20040;-67
2023/06/12 04:17:28;;;;;;;7.18;3.95;;;;;;;;;;5010275;28;20092;-70
2023/06/12 04:20:14;;;;;;;9.20;5.00;;;;;;;;;;5008295;28;20088;-70
2023/06/12 04:23:04;;;;;;;9.90;5.28;;;;;;;;;;5015863;28;20017;-70
2023/06/12 04:25:50;;;;;;;7.35;4.88;;;;;;;;;;4995861;28;20121;-70
2023/06/12 04:28:36;;;;;;;9.05;5.03;;;;;;;;;;5023642;28;20030;-71
2023/06/12 04:31:21;;;;;;;7.53;4.60;;;;;;;;;;5002065;28;20048;-70
2023/06/12 04:34:07;;;;;;;6.97;4.03;;;;;;;;;;5013922;28;20036;-69
2023/06/12 04:36:52;;;;;;;8.77;4.82;;;;;;;;;;5000756;28;20022;-70
2023/06/12 04:39:38;;;;;;;9.07;5.03;;;;;;;;;;5009893;28;20503;-70
2023/06/12 04:42:25;;;;;;;6.70;4.80;;;;;;;;;;5008580;28;20057;-70
2023/06/12 04:45:14;;;;;;;7.97;4.82;;;;;;;;;;5017675;28;20041;-71
2023/06/12 04:47:59;;;;;;;6.30;4.70;;;;;;;;;;5009231;28;20030;-71
2023/06/12 04:50:48;;;;;;;7.60;4.60;;;;;;;;;;5020612;28;20086;-70
2023/06/12 04:53:33;;;;;;;7.20;4.55;;;;;;;;;;5009210;28;20029;-70
2023/06/12 04:56:21;;;;;;;6.53;4.82;;;;;;;;;;5011769;28;20088;-69
2023/06/12 04:59:08;;;;;;;9.55;5.45;;;;;;;;;;5007251;28;20041;-69
2023/06/12 05:01:55;;;;;;;8.10;5.30;;;;;;;;;;5014434;28;20030;-69
2023/06/12 05:04:41;;;;;;;6.88;4.45;;;;;;;;;;5011086;28;20478;-78
2023/06/12 05:07:27;;;;;;;7.65;4.90;;;;;;;;;;5019092;28;20026;-72
2023/06/12 05:10:14;;;;;;;6.93;4.32;;;;;;;;;;5001981;28;20486;-74
2023/06/12 05:12:59;;;;;;;8.98;5.30;;;;;;;;;;5001120;28;20064;-70
2023/06/12 05:15:44;;;;;;;6.15;4.65;;;;;;;;;;5007007;28;20036;-73
2023/06/12 05:18:29;;;;;;;9.10;4.63;;;;;;;;;;5009211;28;20041;-69
2023/06/12 05:21:15;;;;;;;7.28;4.95;;;;;;;;;;4997208;28;20041;-69
2023/06/12 05:24:01;;;;;;;8.07;4.95;;;;;;;;;;5020915;28;20028;-73
2023/06/12 05:26:46;;;;;;;7.65;4.65;;;;;;;;;;5009477;28;20096;-77
2023/06/12 05:29:32;;;;;;;7.18;4.88;;;;;;;;;;5006219;28;20272;-76
2023/06/12 05:32:17;;;;;;;5.90;3.92;;;;;;;;;;5011772;28;20018;-76
2023/06/12 05:35:05;;;;;;;7.20;4.80;;;;;;;;;;5010862;28;20030;-79
2023/06/12 05:37:51;;;;;;;7.43;5.25;;;;;;;;;;5008751;28;20509;-76
2023/06/12 05:40:36;;;;;;;6.65;4.63;;;;;;;;;;5008527;28;20572;-74
2023/06/12 05:43:21;;;;;;;7.22;4.32;;;;;;;;;;5008246;28;20032;-68
2023/06/12 05:46:07;;;;;;;7.95;4.05;;;;;;;;;;5008083;28;20029;-68
2023/06/12 05:48:52;;;;;;;7.32;5.18;;;;;;;;;;5010224;28;20068;-69
2023/06/12 05:51:38;;;;;;;10.65;4.60;;;;;;;;;;5009907;28;20022;-69
2023/06/12 05:54:23;;;;;;;8.90;5.47;;;;;;;;;;5016051;28;20096;-70
2023/06/12 05:57:08;;;;;;;6.72;4.75;;;;;;;;;;5007647;28;20034;-68
2023/06/12 05:59:53;;;;;;;6.68;5.35;;;;;;;;;;5007593;28;20022;-68
2023/06/12 06:02:39;;;;;;;7.80;4.72;;;;;;;;;;5013795;28;20499;-72
2023/06/12 06:05:24;;;;;;;6.55;4.93;;;;;;;;;;5009861;28;20022;-72
2023/06/12 06:08:10;;;;;;;8.52;4.78;;;;;;;;;;5009075;28;20022;-73
2023/06/12 06:10:55;;;;;;;8.73;4.82;;;;;;;;;;5010504;28;20544;-73
2023/06/12 06:13:43;;;;;;;6.95;4.90;;;;;;;;;;5004705;28;20052;-71
2023/06/12 06:16:28;;;;;;;7.20;4.35;;;;;;;;;;5009594;28;20066;-72
2023/06/12 06:19:14;;;;;;;7.68;5.10;;;;;;;;;;5009739;28;20100;-69
2023/06/12 06:21:59;;;;;;;8.90;5.55;;;;;;;;;;5011621;28;20028;-72
2023/06/12 06:24:44;;;;;;;7.45;4.80;;;;;;;;;;4997534;28;20116;-71
2023/06/12 06:27:30;;;;;;;8.13;4.65;;;;;;;;;;5017756;28;20061;-72
2023/06/12 06:30:15;;;;;;;8.15;4.97;;;;;;;;;;5003877;28;20046;-72
2023/06/12 06:33:01;;;;;;;7.82;4.22;;;;;;;;;;5005774;28;20064;-72
2023/06/12 06:35:46;;;;;;;9.40;5.13;;;;;;;;;;5009936;28;20533;-74
2023/06/12 06:38:31;;;;;;;10.02;4.88;;;;;;;;;;5009501;28;20104;-72
2023/06/12 06:41:17;;;;;;;9.25;5.72;;;;;;;;;;4990176;28;20081;-71
2023/06/12 06:44:02;;;;;;;9.55;5.53;;;;;;;;;;5000683;28;20060;-70
2023/06/12 06:46:49;;;;;;;9.60;5.20;;;;;;;;;;5015159;28;20028;-71
2023/06/12 06:49:34;;;;;;;9.68;5.13;;;;;;;;;;5008573;28;20520;-72
2023/06/12 06:52:22;;;;;;;5.90;4.60;;;;;;;;;;5003737;28;20021;-70
2023/06/12 06:55:07;;;;;;;7.68;5.47;;;;;;;;;;5000409;28;20114;-71
2023/06/12 06:57:54;;;;;;;7.70;4.38;;;;;;;;;;4992967;28;20046;-72
2023/06/12 07:00:40;;;;;;;6.65;4.68;;;;;;;;;;4999112;28;20350;-75
2023/06/12 07:03:25;;;;;;;7.63;4.60;;;;;;;;;;5003348;28;20041;-74
2023/06/12 07:06:10;;;;;;;5.95;4.65;;;;;;;;;;5009449;28;20477;-73
2023/06/12 07:08:55;;;;;;;5.82;4.72;;;;;;;;;;4994903;28;20086;-75
2023/06/12 07:11:41;;;;;;;8.07;4.65;;;;;;;;;;4994207;28;20084;-73
2023/06/12 07:14:26;;;;;;;6.43;4.68;;;;;;;;;;5009573;28;20048;-73
2023/06/12 07:17:11;;;;;;;8.90;4.82;;;;;;;;;;5007913;28;20078;-73
2023/06/12 07:19:56;;;;;;;6.32;4.50;;;;;;;;;;5016311;28;20041;-72
2023/06/12 07:22:41;;;;;;;6.80;4.45;;;;;;;;;;5008999;28;20617;-73
2023/06/12 07:25:27;;;;;;;10.45;4.60;;;;;;;;;;5009306;28;20033;-73
2023/06/12 07:28:12;;;;;;;9.20;4.60;;;;;;;;;;5008435;28;20195;-72
2023/06/12 07:30:58;;;;;;;8.52;4.07;;;;;;;;;;5016098;28;20033;-70
2023/06/12 07:33:43;;;;;;;6.18;4.30;;;;;;;;;;5008323;28;20037;-71
2023/06/12 07:36:31;;;;;;;7.80;4.55;;;;;;;;;;5008114;28;20038;-73
2023/06/12 07:39:16;;;;;;;5.78;4.50;;;;;;;;;;5001111;28;20041;-71
2023/06/12 07:42:01;;;;;;;10.57;4.40;;;;;;;;;;5008598;28;20014;-71
2023/06/12 07:44:47;;;;;;;6.57;4.10;;;;;;;;;;5009057;28;20040;-73
2023/06/12 07:47:32;;;;;;;7.22;4.28;;;;;;;;;;5018601;28;20563;-72
2023/06/12 07:50:19;;;;;;;7.80;4.63;;;;;;;;;;5005610;28;20146;-71
2023/06/12 07:53:05;;;;;;;6.53;4.35;;;;;;;;;;5008986;28;20026;-71
2023/06/12 07:55:50;;;;;;;7.25;4.38;;;;;;;;;;5009092;28;20026;-70
2023/06/12 07:58:35;;;;;;;7.63;4.90;;;;;;;;;;5007257;28;20173;-71
2023/06/12 08:01:22;;;;;;;7.38;4.85;;;;;;;;;;5015504;28;20042;-73
2023/06/12 08:04:11;;;;;;;5.90;4.07;;;;;;;;;;5003974;28;20014;-71
2023/06/12 08:06:57;;;;;;;6.30;3.85;;;;;;;;;;5008438;28;20057;-71
2023/06/12 08:09:42;;;;;;;7.65;4.43;;;;;;;;;;5008380;28;20213;-69
2023/06/12 08:12:27;;;;;;;9.93;4.35;;;;;;;;;;5008224;28;20491;-68
2023/06/12 08:15:13;;;;;;;6.75;4.63;;;;;;;;;;5016754;28;20338;-70
2023/06/12 08:17:58;;;;;;;8.02;4.93;;;;;;;;;;5015970;28;20492;-70
2023/06/12 08:20:44;;;;;;;6.70;4.40;;;;;;;;;;5007500;28;20061;-68
2023/06/12 08:23:29;;;;;;;7.90;5.32;;;;;;;;;;5008349;28;20034;-71
2023/06/12 08:26:16;;;;;;;7.53;3.85;;;;;;;;;;5008034;28;20050;-72
2023/06/12 08:29:01;;;;;;;7.20;4.60;;;;;;;;;;5008352;28;20044;-71
2023/06/12 08:31:46;;;;;;;4.95;3.97;;;;;;;;;;5007043;28;20034;-71
2023/06/12 08:34:31;;;;;;;8.10;3.85;;;;;;;;;;5013681;28;20321;-70
2023/06/12 08:37:17;;;;;;;5.70;4.57;;;;;;;;;;4995557;28;20381;-69
2023/06/12 08:40:05;;;;;;;5.55;4.35;;;;;;;;;;5008502;28;20056;-71
2023/06/12 08:42:51;;;;;;;7.15;4.28;;;;;;;;;;5002102;28;20038;-70
2023/06/12 08:45:40;;;;;;;5.63;4.05;;;;;;;;;;5011793;28;20061;-71
2023/06/12 08:48:27;;;;;;;6.07;4.50;;;;;;;;;;5011809;28;20036;-72
2023/06/12 08:51:12;;;;;;;5.47;4.13;;;;;;;;;;5011651;28;20068;-72
2023/06/12 08:53:58;;;;;;;7.18;4.80;;;;;;;;;;5010843;28;20165;-71
2023/06/12 08:56:45;;;;;;;6.10;4.72;;;;;;;;;;5011522;28;20034;-71
2023/06/12 08:59:30;;;;;;;4.85;3.72;;;;;;;;;;5011599;28;20117;-72
2023/06/12 09:02:16;;;;;;;6.03;4.18;;;;;;;;;;5013091;28;20125;-73
2023/06/12 09:05:03;;;;;;;6.90;3.88;;;;;;;;;;5011794;28;20037;-72
2023/06/12 09:07:50;;;;;;;5.28;4.32;;;;;;;;;;5018481;28;20021;-70
2023/06/12 09:10:36;;;;;;;6.38;4.60;;;;;;;;;;5012798;28;20120;-70
2023/06/12 09:13:21;;;;;;;9.40;5.00;;;;;;;;;;5002507;28;20443;-71
2023/06/12 09:16:09;;;;;;;6.55;4.68;;;;;;;;;;5011453;28;20026;-71
2023/06/12 09:18:55;;;;;;;6.60;4.15;;;;;;;;;;5001438;28;20485;-70
2023/06/12 09:21:40;;;;;;;7.25;4.22;;;;;;;;;;5011388;28;20030;-71
2023/06/12 09:24:25;;;;;;;5.10;4.05;;;;;;;;;;5010618;28;20092;-70
2023/06/12 09:27:11;;;;;;;7.53;4.38;;;;;;;;;;5011252;28;20045;-71
2023/06/12 09:29:57;;;;;;;8.55;4.70;;;;;;;;;;5011411;28;20028;-70
2023/06/12 09:32:44;;;;;;;9.18;3.97;;;;;;;;;;5010749;28;20033;-72
2023/06/12 09:35:29;;;;;;;6.20;4.47;;;;;;;;;;5011317;28;20037;-71
2023/06/12 09:38:15;;;;;;;6.88;4.35;;;;;;;;;;5015625;28;20037;-70
2023/06/12 09:41:01;;;;;;;5.63;4.00;;;;;;;;;;5020123;28;20030;-70
2023/06/12 09:43:46;;;;;;;6.03;3.90;;;;;;;;;;5010316;28;20026;-70
2023/06/12 09:46:31;;;;;;;6.50;4.30;;;;;;;;;;5018245;28;20029;-73
2023/06/12 09:49:18;;;;;;;8.20;4.35;;;;;;;;;;5011458;28;20381;-72
2023/06/12 09:52:04;;;;;;;7.65;4.20;;;;;;;;;;5008917;28;20033;-71
2023/06/12 09:54:50;;;;;;;4.88;3.97;;;;;;;;;;5009121;28;20080;-72
2023/06/12 09:57:37;;;;;;;7.28;3.88;;;;;;;;;;5006186;28;20066;-71
2023/06/12 10:00:23;;;;;;;13.60;5.53;;;;;;;;;;5007072;28;20100;-70
2023/06/12 10:03:10;;;;;;;6.82;3.55;;;;;;;;;;5015602;28;20041;-74
2023/06/12 10:05:57;;;;;;;17.23;4.70;;;;;;;;;;5010096;28;20460;-74
2023/06/12 10:08:42;;;;;;;6.72;4.68;;;;;;;;;;5012028;28;20292;-73
2023/06/12 10:11:28;;;;;;;6.28;3.80;;;;;;;;;;5018507;28;20079;-74
2023/06/12 10:14:13;;;;;;;6.22;3.83;;;;;;;;;;5009534;28;20079;-73
2023/06/12 10:16:59;;;;;;;5.53;4.22;;;;;;;;;;5014964;28;20123;-70
2023/06/12 10:19:47;;;;;;;7.43;4.00;;;;;;;;;;5010076;28;20026;-72
2023/06/12 10:22:32;;;;;;;4.68;3.85;;;;;;;;;;5009397;28;20087;-70
2023/06/12 10:25:17;;;;;;;6.97;4.68;;;;;;;;;;5009204;28;20038;-71
2023/06/12 10:28:03;;;;;;;6.43;4.40;;;;;;;;;;5010254;28;20049;-71
2023/06/12 10:31:07;;;;;;;6.28;4.68;;;;;;;;;;5010234;28;20148;-72
2023/06/12 10:33:58;;;;;;;6.30;3.90;;;;;;;;;;5009044;28;20108;-71
2023/06/12 10:36:44;;;;;;;6.72;4.68;;;;;;;;;;5010004;28;20038;-72
2023/06/12 10:39:30;;;;;;;6.78;4.20;;;;;;;;;;5009950;28;20061;-71
2023/06/12 10:42:16;;;;;;;6.88;3.97;;;;;;;;;;5000860;28;20018;-72
2023/06/12 10:45:02;;;;;;;6.57;4.40;;;;;;;;;;5010376;28;20041;-72
2023/06/12 10:47:59;;;;;;;5.35;4.15;;;;;;;;;;5017416;28;20049;-71
2023/06/12 10:50:48;;;;;;;8.60;4.93;;;;;;;;;;5009682;28;20029;-72
2023/06/12 10:53:33;;;;;;;9.57;4.63;;;;;;;;;;5016939;28;20428;-73
2023/06/12 10:56:20;;;;;;;4.85;3.80;;;;;;;;;;5017312;28;20113;-73
2023/06/12 10:59:05;;;;;;;7.90;4.82;;;;;;;;;;5009939;28;20113;-71
2023/06/12 11:01:51;;;;;;;6.10;4.22;;;;;;;;;;5006679;28;20037;-70
2023/06/12 11:04:37;;;;;;;5.70;4.35;;;;;;;;;;5014050;28;20033;-71
2023/06/12 11:07:23;;;;;;;6.57;4.10;;;;;;;;;;5009514;28;20460;-72
2023/06/12 11:10:09;;;;;;;6.65;4.07;;;;;;;;;;4998361;28;20026;-72
2023/06/12 11:12:54;;;;;;;5.80;4.10;;;;;;;;;;5008859;28;20060;-71
2023/06/12 11:15:41;;;;;;;5.47;4.18;;;;;;;;;;5016492;28;20026;-72
2023/06/12 11:18:27;;;;;;;5.40;3.95;;;;;;;;;;5015799;28;20060;-72
2023/06/12 11:21:13;;;;;;;6.43;4.07;;;;;;;;;;5009012;28;20030;-71
2023/06/12 11:24:03;;;;;;;9.88;4.30;;;;;;;;;;5003211;28;20033;-72
2023/06/12 11:26:50;;;;;;;9.43;4.47;;;;;;;;;;5008514;28;20049;-72
2023/06/12 11:29:36;;;;;;;9.10;4.20;;;;;;;;;;5008770;28;20026;-71
2023/06/12 11:32:21;;;;;;;8.52;4.68;;;;;;;;;;5008134;28;20038;-72
2023/06/12 11:35:09;;;;;;;6.47;3.70;;;;;;;;;;5008833;28;20060;-71
2023/06/12 11:37:54;;;;;;;6.28;4.30;;;;;;;;;;5008810;28;20062;-73
2023/06/12 11:40:40;;;;;;;6.93;4.32;;;;;;;;;;5009051;28;20033;-72
2023/06/12 11:43:26;;;;;;;7.65;4.55;;;;;;;;;;5008718;28;20038;-71
2023/06/12 11:46:11;;;;;;;6.68;4.10;;;;;;;;;;5006331;28;20220;-71
2023/06/12 11:49:00;;;;;;;5.50;4.13;;;;;;;;;;5015040;28;20021;-73
2023/06/12 11:51:46;;;;;;;;;;;;;;;;;;5010435;28;20028;-73
2023/06/12 11:54:51;;;;;;;8.45;4.28;;;;;;;;;;4989216;28;19912;-74
2023/06/12 11:57:36;;;;;;;7.07;4.00;;;;;;;;;;5002613;28;20045;-71
2023/06/12 12:00:22;;;;;;;7.38;4.30;;;;;;;;;;5016290;28;20030;-70
2023/06/12 12:03:13;;;;;;;5.65;3.75;;;;;;;;;;5016830;28;20030;-72
2023/06/12 12:05:59;;;;;;;6.03;4.10;;;;;;;;;;4995232;28;20505;-71
2023/06/12 12:08:44;;;;;;;7.22;4.82;;;;;;;;;;5007807;28;20084;-71
2023/06/12 12:11:30;;;;;;;6.85;4.22;;;;;;;;;;5008812;28;20041;-71
2023/06/12 12:14:15;;;;;;;6.20;4.13;;;;;;;;;;5008644;28;20045;-71
2023/06/12 12:17:04;;;;;;;6.55;4.15;;;;;;;;;;5018014;28;20129;-74
2023/06/12 12:19:59;;;;;;;6.63;4.35;;;;;;;;;;5008254;28;20034;-72
2023/06/12 12:22:46;;;;;;;7.60;4.70;;;;;;;;;;5012094;28;20564;-72
2023/06/12 12:42:26;;;;;;;8.05;4.20;;;;;;;;;;5116070;22;20112;-69
2023/06/12 12:47:48;;;;;;;4.97;3.53;;;;;;;;;;4876444;22;20117;-73
2023/06/12 12:50:33;;;;;;;6.57;3.97;;;;;;;;;;5079890;28;20028;-72
2023/06/12 12:53:19;;;;;;;7.88;4.30;;;;;;;;;;5077858;28;20089;-72
2023/06/12 12:56:04;;;;;;;7.63;4.38;;;;;;;;;;5071384;28;20701;-73
2023/06/12 12:58:50;;;;;;;8.40;4.35;;;;;;;;;;5076803;28;20046;-73
2023/06/12 13:01:35;;;;;;;8.00;4.47;;;;;;;;;;5077833;28;20489;-70
2023/06/12 13:04:20;;;;;;;8.27;4.63;;;;;;;;;;5077622;28;20031;-70
2023/06/12 13:07:06;;;;;;;6.88;3.83;;;;;;;;;;5076819;28;20063;-71
2023/06/12 13:09:51;;;;;;;6.05;4.22;;;;;;;;;;5087130;28;20089;-70
2023/06/12 13:12:36;;;;;;;5.85;3.90;;;;;;;;;;5077250;28;20035;-70
2023/06/12 13:15:21;;;;;;;9.13;4.82;;;;;;;;;;5077102;28;20028;-70
2023/06/12 13:18:07;;;;;;;7.63;4.28;;;;;;;;;;5077237;28;20032;-70
2023/06/12 13:20:53;;;;;;;8.80;4.03;;;;;;;;;;5076611;28;20024;-71
2023/06/12 13:23:39;;;;;;;8.77;4.57;;;;;;;;;;5076896;28;20036;-71
2023/06/12 13:26:24;;;;;;;7.25;3.88;;;;;;;;;;5076737;28;20052;-71
2023/06/12 13:29:09;;;;;;;7.00;4.63;;;;;;;;;;5065673;28;20097;-70
2023/06/12 13:31:55;;;;;;;7.30;3.75;;;;;;;;;;5076587;28;20275;-72
2023/06/12 13:34:41;;;;;;;6.05;4.53;;;;;;;;;;5076822;28;20054;-72
2023/06/12 13:37:26;;;;;;;6.50;4.45;;;;;;;;;;5076352;28;20040;-73
2023/06/12 13:40:15;;;;;;;8.57;4.70;;;;;;;;;;5076247;28;20111;-72
2023/06/12 13:43:00;;;;;;;7.43;4.73;;;;;;;;;;5076705;28;20409;-71
2023/06/12 13:45:45;;;;;;;5.50;3.65;;;;;;;;;;5076737;28;20331;-70
2023/06/12 13:48:31;;;;;;;5.72;3.88;;;;;;;;;;5056439;28;20043;-72
2023/06/12 13:51:16;;;;;;;6.38;4.13;;;;;;;;;;5070263;28;20569;-73
2023/06/12 13:54:02;;;;;;;6.47;4.72;;;;;;;;;;5070243;28;20098;-75
2023/06/12 13:56:48;;;;;;;6.10;4.22;;;;;;;;;;5069281;28;20031;-71
2023/06/12 13:59:34;;;;;;;5.75;4.18;;;;;;;;;;5042055;28;20054;-70
2023/06/12 14:02:19;;;;;;;8.10;4.15;;;;;;;;;;5071777;28;20405;-72
2023/06/12 14:05:05;;;;;;;7.80;5.55;;;;;;;;;;5057052;28;20035;-71
2023/06/12 14:07:50;;;;;;;6.75;4.25;;;;;;;;;;5069529;28;20033;-72
2023/06/12 14:10:38;;;;;;;6.15;3.95;;;;;;;;;;5070116;28;20020;-72
2023/06/12 14:13:24;;;;;;;8.18;4.43;;;;;;;;;;5069851;28;20102;-71
2023/06/12 14:16:10;;;;;;;7.50;4.20;;;;;;;;;;5069388;28;20514;-72
2023/06/12 14:18:55;;;;;;;6.82;4.97;;;;;;;;;;5068417;28;20051;-70
2023/06/12 14:21:40;;;;;;;7.10;4.45;;;;;;;;;;5055582;28;20107;-71
2023/06/12 14:24:25;;;;;;;6.07;4.93;;;;;;;;;;5069753;28;20068;-72
2023/06/12 14:27:11;;;;;;;6.50;4.15;;;;;;;;;;5054006;28;20067;-71
2023/06/12 14:29:56;;;;;;;6.18;3.78;;;;;;;;;;5067914;28;20043;-71
2023/06/12 14:32:41;;;;;;;6.82;5.10;;;;;;;;;;5067066;28;20029;-69
2023/06/12 14:35:26;;;;;;;7.45;4.65;;;;;;;;;;5068748;28;20517;-72
2023/06/12 14:38:12;;;;;;;7.93;4.68;;;;;;;;;;5044734;28;20033;-69
2023/06/12 14:40:57;;;;;;;5.57;4.30;;;;;;;;;;5063691;28;20043;-70
2023/06/12 14:43:42;;;;;;;7.25;4.53;;;;;;;;;;5055133;28;20127;-72
2023/06/12 14:46:28;;;;;;;6.20;3.97;;;;;;;;;;5073836;28;20028;-69
2023/06/12 14:49:13;;;;;;;7.70;4.55;;;;;;;;;;5065562;28;20032;-69
2023/06/12 14:51:58;;;;;;;6.15;4.40;;;;;;;;;;5051909;28;20071;-71
2023/06/12 14:54:43;;;;;;;8.88;4.15;;;;;;;;;;5068888;28;20421;-72
2023/06/12 14:57:28;;;;;;;8.20;4.95;;;;;;;;;;5040848;28;20049;-74
2023/06/12 15:00:14;;;;;;;7.95;4.47;;;;;;;;;;5059414;28;20029;-76
2023/06/12 15:02:59;;;;;;;6.38;4.30;;;;;;;;;;5093908;28;20079;-73
2023/06/12 15:05:44;;;;;;;13.20;4.95;;;;;;;;;;5069492;28;20108;-73
2023/06/12 15:08:30;;;;;;;9.25;4.55;;;;;;;;;;5069445;28;20028;-74
2023/06/12 15:11:15;;;;;;;5.57;3.63;;;;;;;;;;5068253;28;20223;-71
2023/06/12 15:14:00;;;;;;;7.95;4.20;;;;;;;;;;5068758;28;20063;-72
2023/06/12 15:16:45;;;;;;;8.32;4.90;;;;;;;;;;5066752;28;20070;-71
2023/06/12 15:19:33;;;;;;;7.97;4.88;;;;;;;;;;5068351;28;20570;-71
2023/06/12 15:22:20;;;;;;;6.85;4.80;;;;;;;;;;5060654;28;20470;-72
2023/06/12 15:25:05;;;;;;;7.70;3.83;;;;;;;;;;5068249;28;20028;-72
2023/06/12 15:27:50;;;;;;;7.80;4.30;;;;;;;;;;5059599;28;20017;-71
2023/06/12 15:30:35;;;;;;;5.43;3.97;;;;;;;;;;5039015;28;20434;-72
2023/06/12 15:33:21;;;;;;;6.85;4.55;;;;;;;;;;5056336;28;20110;-70
2023/06/12 15:36:06;;;;;;;6.95;4.32;;;;;;;;;;5054505;28;20082;-71
2023/06/12 15:38:51;;;;;;;6.95;4.25;;;;;;;;;;5052336;28;20044;-70
2023/06/12 15:41:39;;;;;;;6.15;4.30;;;;;;;;;;5055097;28;20029;-72
2023/06/12 15:44:25;;;;;;;6.87;4.80;;;;;;;;;;5038777;28;20032;-72
2023/06/12 15:47:12;;;;;;;6.78;4.18;;;;;;;;;;5058890;28;20088;-70
2023/06/12 15:49:57;;;;;;;6.57;4.05;;;;;;;;;;5059139;28;20032;-70
2023/06/12 15:52:43;;;;;;;6.43;4.10;;;;;;;;;;5062417;28;20032;-70
2023/06/12 15:55:28;;;;;;;8.35;4.75;;;;;;;;;;5067539;28;20038;-70
2023/06/12 15:58:13;;;;;;;6.63;4.50;;;;;;;;;;5053548;28;20569;-57
2023/06/12 16:00:58;;;;;;;4.93;3.67;;;;;;;;;;5059827;28;20032;-60
2023/06/12 16:03:44;;;;;;;5.63;3.72;;;;;;;;;;5067211;28;20047;-60
2023/06/12 16:06:29;;;;;;;8.43;4.53;;;;;;;;;;5065350;28;20083;-63
2023/06/12 16:09:15;;;;;;;6.65;4.00;;;;;;;;;;5057556;28;20048;-68
2023/06/12 16:12:00;;;;;;;6.95;4.30;;;;;;;;;;5057291;28;20032;-68
2023/06/12 16:14:45;;;;;;;9.48;4.60;;;;;;;;;;5060849;28;20033;-68
2023/06/12 16:17:30;;;;;;;7.40;4.82;;;;;;;;;;5053640;28;20033;-72
2023/06/12 16:20:16;;;;;;;5.85;3.67;;;;;;;;;;5064252;28;20029;-68
2023/06/12 16:23:02;;;;;;;6.50;4.30;;;;;;;;;;5061065;28;20031;-62
2023/06/12 16:25:47;;;;;;;7.97;4.82;;;;;;;;;;5058946;28;20135;-68
2023/06/12 16:28:32;;;;;;;9.20;4.65;;;;;;;;;;5052579;28;20033;-66
2023/06/12 16:31:18;;;;;;;5.63;4.00;;;;;;;;;;5058783;28;20032;-63
2023/06/12 16:34:03;;;;;;;7.32;3.92;;;;;;;;;;5058295;28;20111;-63
2023/06/12 16:36:48;;;;;;;7.70;4.32;;;;;;;;;;5058391;28;20037;-63
2023/06/12 16:39:36;;;;;;;8.93;4.25;;;;;;;;;;5053383;28;20029;-63
2023/06/12 16:42:22;;;;;;;6.65;4.50;;;;;;;;;;5057674;28;20047;-57
2023/06/12 16:45:07;;;;;;;6.82;4.70;;;;;;;;;;5060865;28;20447;-71
2023/06/12 16:47:52;;;;;;;7.03;4.80;;;;;;;;;;5060900;28;20102;-64
2023/06/12 16:50:38;;;;;;;8.48;4.75;;;;;;;;;;5057129;28;20123;-69
2023/06/12 16:53:23;;;;;;;7.38;4.10;;;;;;;;;;5058648;28;20032;-69
2023/06/12 16:56:08;;;;;;;10.32;5.00;;;;;;;;;;5059833;28;20036;-71